Main page
METAR-TAF:

METAR-TAF

Airports :

Isle of Man Airport

Isle of Man,

latitude: 54-05N, longitude: 004-38W, elevation: 17 m

Current weather observation

The report was made 3 hours and 6 minutes ago, at 02:50 UTC
Wind 7 kt from the North/Northwest
Temperature 10°C
Humidity 82%
Pressure 1022 hPa
Visibility 10 km or more
Few clouds at a height of 3000 ft

METAR: EGNS 250250Z 33007KT 9999 FEW030 10/07 Q1022

Time: 06:56 (05:56 UTC)

Forecast

The report was made 12 hours and 56 minutes ago, at 17:00 UTC
Forecast valid from 24 at 18 UTC to 24 at 22 UTC
Wind 10 kt from the North
Visibility 10 km or more
Few clouds at a height of 2500 ft

TAF: EGNS 241700Z 2418/2422 35010KT 9999 FEW025

Weather observations and forecasts of more than 4000 airports (METAR and TAF reports).

The available stations are represented by yellow and red dots on the map.

Hover mouse over dot to see the name of the station.

Then click to see weather observations and forecasts.

To change the map : click on the green buttons with a black cross to zoom in, on the green button with a dash to zoom out, or on the green arrows for adjacent maps.


METAR-TAF: